sensor_id;sensor_type;location;lat;lon;timestamp;P1;durP1;ratioP1;P2;durP2;ratioP2
79570;SDS011;69034;49.444;7.758;2024-03-06T00:00:50;6.38;;;2.13;;
79570;SDS011;69034;49.444;7.758;2024-03-06T00:04:51;2.17;;;1.02;;
79570;SDS011;69034;49.444;7.758;2024-03-06T00:08:52;2.38;;;0.75;;
79570;SDS011;69034;49.444;7.758;2024-03-06T00:12:52;3.17;;;1.02;;
79570;SDS011;69034;49.444;7.758;2024-03-06T00:16:53;2.88;;;1.00;;
79570;SDS011;69034;49.444;7.758;2024-03-06T00:20:55;2.60;;;1.20;;
79570;SDS011;69034;49.444;7.758;2024-03-06T00:24:56;3.60;;;1.30;;
79570;SDS011;69034;49.444;7.758;2024-03-06T00:28:57;3.17;;;1.30;;
79570;SDS011;69034;49.444;7.758;2024-03-06T00:32:57;6.35;;;1.67;;
79570;SDS011;69034;49.444;7.758;2024-03-06T00:36:59;4.53;;;1.58;;
79570;SDS011;69034;49.444;7.758;2024-03-06T00:40:59;3.80;;;1.25;;
79570;SDS011;69034;49.444;7.758;2024-03-06T00:45:00;7.97;;;2.53;;
79570;SDS011;69034;49.444;7.758;2024-03-06T00:49:03;4.57;;;2.10;;
79570;SDS011;69034;49.444;7.758;2024-03-06T00:53:03;6.00;;;1.73;;
79570;SDS011;69034;49.444;7.758;2024-03-06T00:57:04;3.30;;;1.30;;
79570;SDS011;69034;49.444;7.758;2024-03-06T01:01:05;3.22;;;1.40;;
79570;SDS011;69034;49.444;7.758;2024-03-06T01:05:06;4.55;;;1.30;;
79570;SDS011;69034;49.444;7.758;2024-03-06T01:09:07;3.88;;;1.88;;
79570;SDS011;69034;49.444;7.758;2024-03-06T01:13:07;4.05;;;1.30;;
79570;SDS011;69034;49.444;7.758;2024-03-06T01:17:10;5.40;;;2.08;;
79570;SDS011;69034;49.444;7.758;2024-03-06T01:21:12;5.50;;;1.88;;
79570;SDS011;69034;49.444;7.758;2024-03-06T01:25:13;4.25;;;2.38;;
79570;SDS011;69034;49.444;7.758;2024-03-06T01:29:16;5.05;;;1.15;;
79570;SDS011;69034;49.444;7.758;2024-03-06T01:33:18;2.20;;;1.05;;
79570;SDS011;69034;49.444;7.758;2024-03-06T01:37:18;2.90;;;1.23;;
79570;SDS011;69034;49.444;7.758;2024-03-06T01:41:19;3.80;;;1.60;;
79570;SDS011;69034;49.444;7.758;2024-03-06T01:45:21;2.72;;;1.30;;
79570;SDS011;69034;49.444;7.758;2024-03-06T01:49:22;3.72;;;1.42;;
79570;SDS011;69034;49.444;7.758;2024-03-06T01:53:23;4.57;;;1.98;;
79570;SDS011;69034;49.444;7.758;2024-03-06T01:57:27;4.18;;;2.05;;
79570;SDS011;69034;49.444;7.758;2024-03-06T02:01:29;3.55;;;1.33;;
79570;SDS011;69034;49.444;7.758;2024-03-06T02:05:31;5.63;;;2.53;;
79570;SDS011;69034;49.444;7.758;2024-03-06T02:09:32;5.45;;;1.90;;
79570;SDS011;69034;49.444;7.758;2024-03-06T02:13:33;10.68;;;3.47;;
79570;SDS011;69034;49.444;7.758;2024-03-06T02:17:34;5.70;;;1.77;;
79570;SDS011;69034;49.444;7.758;2024-03-06T02:21:35;8.48;;;3.08;;
79570;SDS011;69034;49.444;7.758;2024-03-06T02:25:38;4.28;;;1.67;;
79570;SDS011;69034;49.444;7.758;2024-03-06T02:29:38;3.67;;;1.60;;
79570;SDS011;69034;49.444;7.758;2024-03-06T02:37:41;2.92;;;1.35;;
79570;SDS011;69034;49.444;7.758;2024-03-06T02:41:43;5.70;;;1.92;;
79570;SDS011;69034;49.444;7.758;2024-03-06T02:45:44;4.70;;;1.48;;
79570;SDS011;69034;49.444;7.758;2024-03-06T02:49:45;2.35;;;0.98;;
79570;SDS011;69034;49.444;7.758;2024-03-06T02:53:46;3.03;;;1.25;;
79570;SDS011;69034;49.444;7.758;2024-03-06T02:57:49;3.28;;;1.60;;
79570;SDS011;69034;49.444;7.758;2024-03-06T03:01:50;5.07;;;2.38;;
79570;SDS011;69034;49.444;7.758;2024-03-06T03:05:50;4.70;;;2.17;;
79570;SDS011;69034;49.444;7.758;2024-03-06T03:09:51;3.15;;;1.25;;
79570;SDS011;69034;49.444;7.758;2024-03-06T03:17:53;3.60;;;1.45;;
79570;SDS011;69034;49.444;7.758;2024-03-06T03:25:54;3.70;;;1.58;;
79570;SDS011;69034;49.444;7.758;2024-03-06T03:33:57;3.05;;;1.48;;
79570;SDS011;69034;49.444;7.758;2024-03-06T03:41:58;2.55;;;1.20;;
79570;SDS011;69034;49.444;7.758;2024-03-06T03:49:59;6.63;;;2.47;;
79570;SDS011;69034;49.444;7.758;2024-03-06T03:54:00;3.83;;;1.67;;
79570;SDS011;69034;49.444;7.758;2024-03-06T03:58:01;4.63;;;2.10;;
79570;SDS011;69034;49.444;7.758;2024-03-06T04:06:02;4.63;;;1.13;;
79570;SDS011;69034;49.444;7.758;2024-03-06T04:10:05;3.30;;;1.48;;
79570;SDS011;69034;49.444;7.758;2024-03-06T04:14:07;3.72;;;1.70;;
79570;SDS011;69034;49.444;7.758;2024-03-06T04:18:09;5.82;;;2.20;;
79570;SDS011;69034;49.444;7.758;2024-03-06T04:26:11;4.57;;;1.75;;
79570;SDS011;69034;49.444;7.758;2024-03-06T04:30:13;4.63;;;1.58;;
79570;SDS011;69034;49.444;7.758;2024-03-06T04:34:13;3.35;;;1.35;;
79570;SDS011;69034;49.444;7.758;2024-03-06T04:38:14;9.75;;;2.67;;
79570;SDS011;69034;49.444;7.758;2024-03-06T04:42:15;4.07;;;1.58;;
79570;SDS011;69034;49.444;7.758;2024-03-06T04:46:16;3.20;;;1.35;;
79570;SDS011;69034;49.444;7.758;2024-03-06T04:50:16;4.03;;;1.48;;
79570;SDS011;69034;49.444;7.758;2024-03-06T04:58:17;7.28;;;3.40;;
79570;SDS011;69034;49.444;7.758;2024-03-06T05:06:19;3.72;;;1.83;;
79570;SDS011;69034;49.444;7.758;2024-03-06T05:14:20;3.53;;;2.22;;
79570;SDS011;69034;49.444;7.758;2024-03-06T05:22:21;5.22;;;2.10;;
79570;SDS011;69034;49.444;7.758;2024-03-06T05:26:22;2.80;;;1.30;;
79570;SDS011;69034;49.444;7.758;2024-03-06T05:34:24;3.83;;;2.22;;
79570;SDS011;69034;49.444;7.758;2024-03-06T05:42:25;13.73;;;3.63;;
79570;SDS011;69034;49.444;7.758;2024-03-06T05:46:26;6.07;;;3.08;;
79570;SDS011;69034;49.444;7.758;2024-03-06T05:54:28;4.53;;;2.05;;
79570;SDS011;69034;49.444;7.758;2024-03-06T06:02:29;4.10;;;2.05;;
79570;SDS011;69034;49.444;7.758;2024-03-06T06:10:31;3.58;;;1.55;;
79570;SDS011;69034;49.444;7.758;2024-03-06T06:14:32;6.88;;;1.65;;
79570;SDS011;69034;49.444;7.758;2024-03-06T06:22:33;3.53;;;1.55;;
79570;SDS011;69034;49.444;7.758;2024-03-06T06:30:35;4.13;;;1.90;;
79570;SDS011;69034;49.444;7.758;2024-03-06T06:34:36;4.00;;;2.55;;
79570;SDS011;69034;49.444;7.758;2024-03-06T06:38:37;5.43;;;1.55;;
79570;SDS011;69034;49.444;7.758;2024-03-06T06:42:37;3.60;;;1.52;;
79570;SDS011;69034;49.444;7.758;2024-03-06T06:46:49;5.85;;;2.35;;
79570;SDS011;69034;49.444;7.758;2024-03-06T06:50:50;3.85;;;1.83;;
79570;SDS011;69034;49.444;7.758;2024-03-06T06:58:51;4.35;;;1.83;;
79570;SDS011;69034;49.444;7.758;2024-03-06T07:06:52;6.95;;;2.20;;
79570;SDS011;69034;49.444;7.758;2024-03-06T07:10:53;5.97;;;3.10;;
79570;SDS011;69034;49.444;7.758;2024-03-06T07:14:54;2.95;;;1.70;;
79570;SDS011;69034;49.444;7.758;2024-03-06T07:18:55;10.52;;;2.95;;
79570;SDS011;69034;49.444;7.758;2024-03-06T07:22:56;4.63;;;2.40;;
79570;SDS011;69034;49.444;7.758;2024-03-06T07:26:57;5.45;;;2.00;;
79570;SDS011;69034;49.444;7.758;2024-03-06T07:31:01;7.90;;;3.58;;
79570;SDS011;69034;49.444;7.758;2024-03-06T07:35:03;5.22;;;2.22;;
79570;SDS011;69034;49.444;7.758;2024-03-06T07:39:04;9.00;;;3.28;;
79570;SDS011;69034;49.444;7.758;2024-03-06T07:43:05;3.53;;;1.55;;
79570;SDS011;69034;49.444;7.758;2024-03-06T07:47:06;4.95;;;2.58;;
79570;SDS011;69034;49.444;7.758;2024-03-06T07:51:07;6.15;;;2.95;;
79570;SDS011;69034;49.444;7.758;2024-03-06T07:55:08;6.65;;;3.03;;
79570;SDS011;69034;49.444;7.758;2024-03-06T07:59:08;11.95;;;3.55;;
79570;SDS011;69034;49.444;7.758;2024-03-06T08:03:11;7.70;;;2.83;;
79570;SDS011;69034;49.444;7.758;2024-03-06T08:07:13;7.72;;;3.67;;
79570;SDS011;69034;49.444;7.758;2024-03-06T08:11:14;6.05;;;2.53;;
79570;SDS011;69034;49.444;7.758;2024-03-06T08:15:15;11.52;;;4.13;;
79570;SDS011;69034;49.444;7.758;2024-03-06T08:19:17;7.68;;;2.90;;
79570;SDS011;69034;49.444;7.758;2024-03-06T08:23:19;9.77;;;4.00;;
79570;SDS011;69034;49.444;7.758;2024-03-06T08:27:19;9.60;;;4.55;;
79570;SDS011;69034;49.444;7.758;2024-03-06T08:31:20;7.72;;;3.60;;
79570;SDS011;69034;49.444;7.758;2024-03-06T08:35:22;5.80;;;2.83;;
79570;SDS011;69034;49.444;7.758;2024-03-06T08:39:24;11.95;;;4.30;;
79570;SDS011;69034;49.444;7.758;2024-03-06T08:43:24;10.50;;;4.15;;
79570;SDS011;69034;49.444;7.758;2024-03-06T08:47:26;7.00;;;3.88;;
79570;SDS011;69034;49.444;7.758;2024-03-06T08:51:27;8.10;;;3.83;;
79570;SDS011;69034;49.444;7.758;2024-03-06T08:55:27;8.55;;;4.05;;
79570;SDS011;69034;49.444;7.758;2024-03-06T08:59:28;9.90;;;4.78;;
79570;SDS011;69034;49.444;7.758;2024-03-06T09:03:29;15.00;;;4.53;;
79570;SDS011;69034;49.444;7.758;2024-03-06T09:07:31;4.35;;;2.15;;
79570;SDS011;69034;49.444;7.758;2024-03-06T09:11:38;9.50;;;4.20;;
79570;SDS011;69034;49.444;7.758;2024-03-06T09:15:39;9.43;;;3.85;;
79570;SDS011;69034;49.444;7.758;2024-03-06T09:19:40;8.05;;;2.97;;
79570;SDS011;69034;49.444;7.758;2024-03-06T09:23:41;6.78;;;3.70;;
79570;SDS011;69034;49.444;7.758;2024-03-06T09:27:42;10.40;;;4.20;;
79570;SDS011;69034;49.444;7.758;2024-03-06T09:31:43;5.95;;;3.15;;
79570;SDS011;69034;49.444;7.758;2024-03-06T09:35:44;5.85;;;2.92;;
79570;SDS011;69034;49.444;7.758;2024-03-06T09:39:45;9.32;;;3.85;;
79570;SDS011;69034;49.444;7.758;2024-03-06T09:43:48;6.15;;;3.20;;
79570;SDS011;69034;49.444;7.758;2024-03-06T09:47:49;8.90;;;4.03;;
79570;SDS011;69034;49.444;7.758;2024-03-06T09:51:53;7.18;;;4.22;;
79570;SDS011;69034;49.444;7.758;2024-03-06T09:55:56;8.35;;;3.35;;
79570;SDS011;69034;49.444;7.758;2024-03-06T09:59:57;8.50;;;4.57;;
79570;SDS011;69034;49.444;7.758;2024-03-06T10:03:58;8.52;;;4.13;;
79570;SDS011;69034;49.444;7.758;2024-03-06T10:08:00;7.72;;;3.33;;
79570;SDS011;69034;49.444;7.758;2024-03-06T10:12:01;8.15;;;4.15;;
79570;SDS011;69034;49.444;7.758;2024-03-06T10:16:04;7.13;;;3.65;;
79570;SDS011;69034;49.444;7.758;2024-03-06T10:20:22;9.52;;;5.05;;
79570;SDS011;69034;49.444;7.758;2024-03-06T10:24:25;7.00;;;3.83;;
79570;SDS011;69034;49.444;7.758;2024-03-06T10:28:27;5.88;;;2.78;;
79570;SDS011;69034;49.444;7.758;2024-03-06T10:32:29;6.45;;;3.42;;
79570;SDS011;69034;49.444;7.758;2024-03-06T10:36:32;9.48;;;4.93;;
79570;SDS011;69034;49.444;7.758;2024-03-06T10:40:36;8.27;;;3.58;;
79570;SDS011;69034;49.444;7.758;2024-03-06T10:44:54;6.53;;;2.90;;
79570;SDS011;69034;49.444;7.758;2024-03-06T10:48:58;10.95;;;5.00;;
79570;SDS011;69034;49.444;7.758;2024-03-06T10:53:00;6.75;;;3.33;;
79570;SDS011;69034;49.444;7.758;2024-03-06T10:57:03;5.75;;;2.85;;
79570;SDS011;69034;49.444;7.758;2024-03-06T11:01:04;5.57;;;2.15;;
79570;SDS011;69034;49.444;7.758;2024-03-06T11:05:06;5.25;;;2.10;;
79570;SDS011;69034;49.444;7.758;2024-03-06T11:09:08;4.43;;;1.85;;
79570;SDS011;69034;49.444;7.758;2024-03-06T11:13:24;5.45;;;2.28;;
79570;SDS011;69034;49.444;7.758;2024-03-06T11:17:26;7.13;;;1.80;;
79570;SDS011;69034;49.444;7.758;2024-03-06T11:21:27;4.63;;;2.45;;
79570;SDS011;69034;49.444;7.758;2024-03-06T11:30:11;4.20;;;1.67;;
79570;SDS011;69034;49.444;7.758;2024-03-06T11:34:14;5.93;;;2.13;;
79570;SDS011;69034;49.444;7.758;2024-03-06T11:38:17;4.85;;;1.83;;
79570;SDS011;69034;49.444;7.758;2024-03-06T11:42:17;3.35;;;1.27;;
79570;SDS011;69034;49.444;7.758;2024-03-06T11:46:42;3.17;;;1.30;;
79570;SDS011;69034;49.444;7.758;2024-03-06T11:50:49;4.25;;;1.50;;
79570;SDS011;69034;49.444;7.758;2024-03-06T11:54:51;2.50;;;1.02;;
79570;SDS011;69034;49.444;7.758;2024-03-06T11:58:52;3.08;;;1.17;;
79570;SDS011;69034;49.444;7.758;2024-03-06T12:02:53;4.35;;;1.23;;
79570;SDS011;69034;49.444;7.758;2024-03-06T12:06:57;3.30;;;1.20;;
79570;SDS011;69034;49.444;7.758;2024-03-06T12:11:05;4.57;;;1.90;;
79570;SDS011;69034;49.444;7.758;2024-03-06T12:15:06;3.33;;;1.33;;
79570;SDS011;69034;49.444;7.758;2024-03-06T12:19:11;4.32;;;1.52;;
79570;SDS011;69034;49.444;7.758;2024-03-06T12:23:19;4.68;;;1.58;;
79570;SDS011;69034;49.444;7.758;2024-03-06T12:27:25;3.40;;;1.40;;
79570;SDS011;69034;49.444;7.758;2024-03-06T12:31:26;4.38;;;1.30;;
79570;SDS011;69034;49.444;7.758;2024-03-06T12:35:26;3.28;;;1.42;;
79570;SDS011;69034;49.444;7.758;2024-03-06T12:39:27;3.08;;;1.15;;
79570;SDS011;69034;49.444;7.758;2024-03-06T12:43:32;5.00;;;1.20;;
79570;SDS011;69034;49.444;7.758;2024-03-06T12:47:34;2.60;;;1.10;;
79570;SDS011;69034;49.444;7.758;2024-03-06T12:51:36;3.50;;;1.20;;
79570;SDS011;69034;49.444;7.758;2024-03-06T12:55:37;3.47;;;1.17;;
79570;SDS011;69034;49.444;7.758;2024-03-06T12:59:37;2.88;;;1.05;;
79570;SDS011;69034;49.444;7.758;2024-03-06T13:03:38;2.80;;;0.90;;
79570;SDS011;69034;49.444;7.758;2024-03-06T13:07:39;2.25;;;0.82;;
79570;SDS011;69034;49.444;7.758;2024-03-06T13:11:42;3.05;;;1.02;;
79570;SDS011;69034;49.444;7.758;2024-03-06T13:15:43;2.92;;;1.00;;
79570;SDS011;69034;49.444;7.758;2024-03-06T13:19:44;2.58;;;0.98;;
79570;SDS011;69034;49.444;7.758;2024-03-06T13:23:45;3.28;;;1.13;;
79570;SDS011;69034;49.444;7.758;2024-03-06T13:27:45;2.15;;;0.80;;
79570;SDS011;69034;49.444;7.758;2024-03-06T13:31:46;2.70;;;0.73;;
79570;SDS011;69034;49.444;7.758;2024-03-06T13:35:47;3.72;;;1.02;;
79570;SDS011;69034;49.444;7.758;2024-03-06T13:39:48;2.78;;;1.10;;
79570;SDS011;69034;49.444;7.758;2024-03-06T13:43:48;1.88;;;0.73;;
79570;SDS011;69034;49.444;7.758;2024-03-06T13:47:49;2.15;;;0.50;;
79570;SDS011;69034;49.444;7.758;2024-03-06T13:51:50;1.63;;;0.60;;
79570;SDS011;69034;49.444;7.758;2024-03-06T13:55:51;1.58;;;0.57;;
79570;SDS011;69034;49.444;7.758;2024-03-06T13:59:52;3.10;;;0.70;;
79570;SDS011;69034;49.444;7.758;2024-03-06T14:03:53;1.80;;;0.50;;
79570;SDS011;69034;49.444;7.758;2024-03-06T14:07:53;2.40;;;0.73;;
79570;SDS011;69034;49.444;7.758;2024-03-06T14:11:55;2.05;;;0.55;;
79570;SDS011;69034;49.444;7.758;2024-03-06T14:15:56;0.88;;;0.32;;
79570;SDS011;69034;49.444;7.758;2024-03-06T14:20:00;2.38;;;0.47;;
79570;SDS011;69034;49.444;7.758;2024-03-06T14:24:01;1.90;;;0.65;;
79570;SDS011;69034;49.444;7.758;2024-03-06T14:28:06;3.92;;;1.35;;
79570;SDS011;69034;49.444;7.758;2024-03-06T14:32:07;3.60;;;0.93;;
79570;SDS011;69034;49.444;7.758;2024-03-06T14:36:08;3.88;;;1.10;;
79570;SDS011;69034;49.444;7.758;2024-03-06T14:40:10;2.63;;;0.70;;
79570;SDS011;69034;49.444;7.758;2024-03-06T14:44:10;2.60;;;1.13;;
79570;SDS011;69034;49.444;7.758;2024-03-06T14:48:15;2.55;;;1.10;;
79570;SDS011;69034;49.444;7.758;2024-03-06T14:52:15;5.05;;;0.90;;
79570;SDS011;69034;49.444;7.758;2024-03-06T14:56:16;4.32;;;1.70;;
79570;SDS011;69034;49.444;7.758;2024-03-06T15:00:20;2.97;;;1.00;;
79570;SDS011;69034;49.444;7.758;2024-03-06T15:04:21;5.30;;;1.75;;
79570;SDS011;69034;49.444;7.758;2024-03-06T15:08:22;2.90;;;1.08;;
79570;SDS011;69034;49.444;7.758;2024-03-06T15:12:23;1.95;;;0.80;;
79570;SDS011;69034;49.444;7.758;2024-03-06T15:16:24;4.88;;;1.42;;
79570;SDS011;69034;49.444;7.758;2024-03-06T15:20:25;5.95;;;2.30;;
79570;SDS011;69034;49.444;7.758;2024-03-06T15:24:27;6.57;;;1.85;;
79570;SDS011;69034;49.444;7.758;2024-03-06T15:28:30;3.75;;;1.55;;
79570;SDS011;69034;49.444;7.758;2024-03-06T15:32:30;3.30;;;1.05;;
79570;SDS011;69034;49.444;7.758;2024-03-06T15:36:31;5.72;;;1.85;;
79570;SDS011;69034;49.444;7.758;2024-03-06T15:40:32;4.93;;;1.08;;
79570;SDS011;69034;49.444;7.758;2024-03-06T15:44:32;4.30;;;1.92;;
79570;SDS011;69034;49.444;7.758;2024-03-06T15:48:33;4.72;;;2.40;;
79570;SDS011;69034;49.444;7.758;2024-03-06T15:52:34;7.47;;;2.30;;
79570;SDS011;69034;49.444;7.758;2024-03-06T15:56:35;8.57;;;3.40;;
79570;SDS011;69034;49.444;7.758;2024-03-06T16:00:36;9.25;;;3.35;;
79570;SDS011;69034;49.444;7.758;2024-03-06T16:04:36;5.30;;;2.88;;
79570;SDS011;69034;49.444;7.758;2024-03-06T16:08:37;9.27;;;3.55;;
79570;SDS011;69034;49.444;7.758;2024-03-06T16:12:38;7.00;;;2.92;;
79570;SDS011;69034;49.444;7.758;2024-03-06T16:16:39;5.10;;;2.72;;
79570;SDS011;69034;49.444;7.758;2024-03-06T16:20:41;8.98;;;4.18;;
79570;SDS011;69034;49.444;7.758;2024-03-06T16:24:41;8.85;;;4.18;;
79570;SDS011;69034;49.444;7.758;2024-03-06T16:28:43;7.57;;;4.07;;
79570;SDS011;69034;49.444;7.758;2024-03-06T16:32:43;11.95;;;3.88;;
79570;SDS011;69034;49.444;7.758;2024-03-06T16:36:44;7.43;;;2.92;;
79570;SDS011;69034;49.444;7.758;2024-03-06T16:40:45;9.43;;;4.32;;
79570;SDS011;69034;49.444;7.758;2024-03-06T16:44:47;4.88;;;2.13;;
79570;SDS011;69034;49.444;7.758;2024-03-06T16:48:48;7.93;;;3.80;;
79570;SDS011;69034;49.444;7.758;2024-03-06T16:52:49;3.40;;;1.38;;
79570;SDS011;69034;49.444;7.758;2024-03-06T16:56:51;8.55;;;3.78;;
79570;SDS011;69034;49.444;7.758;2024-03-06T17:00:51;10.13;;;4.93;;
79570;SDS011;69034;49.444;7.758;2024-03-06T17:04:52;6.55;;;3.00;;
79570;SDS011;69034;49.444;7.758;2024-03-06T17:08:52;9.38;;;4.60;;
79570;SDS011;69034;49.444;7.758;2024-03-06T17:12:53;5.07;;;1.67;;
79570;SDS011;69034;49.444;7.758;2024-03-06T17:16:54;6.72;;;3.05;;
79570;SDS011;69034;49.444;7.758;2024-03-06T17:20:55;6.63;;;3.33;;
79570;SDS011;69034;49.444;7.758;2024-03-06T17:24:56;7.30;;;3.08;;
79570;SDS011;69034;49.444;7.758;2024-03-06T17:28:56;6.10;;;3.03;;
79570;SDS011;69034;49.444;7.758;2024-03-06T17:32:59;5.43;;;2.33;;
79570;SDS011;69034;49.444;7.758;2024-03-06T17:37:01;7.40;;;4.00;;
79570;SDS011;69034;49.444;7.758;2024-03-06T17:41:05;15.05;;;7.68;;
79570;SDS011;69034;49.444;7.758;2024-03-06T17:45:08;5.90;;;2.38;;
79570;SDS011;69034;49.444;7.758;2024-03-06T17:49:09;8.30;;;4.07;;
79570;SDS011;69034;49.444;7.758;2024-03-06T17:53:10;9.77;;;5.68;;
79570;SDS011;69034;49.444;7.758;2024-03-06T17:57:11;8.88;;;3.47;;
79570;SDS011;69034;49.444;7.758;2024-03-06T18:01:15;6.15;;;2.95;;
79570;SDS011;69034;49.444;7.758;2024-03-06T18:05:15;8.77;;;3.88;;
79570;SDS011;69034;49.444;7.758;2024-03-06T18:09:16;13.27;;;5.68;;
79570;SDS011;69034;49.444;7.758;2024-03-06T18:13:18;4.90;;;2.33;;
79570;SDS011;69034;49.444;7.758;2024-03-06T18:17:19;10.80;;;4.55;;
79570;SDS011;69034;49.444;7.758;2024-03-06T18:21:21;6.50;;;2.90;;
79570;SDS011;69034;49.444;7.758;2024-03-06T18:25:22;10.48;;;5.43;;
79570;SDS011;69034;49.444;7.758;2024-03-06T18:29:23;10.50;;;4.80;;
79570;SDS011;69034;49.444;7.758;2024-03-06T18:33:23;7.55;;;3.60;;
79570;SDS011;69034;49.444;7.758;2024-03-06T18:37:24;14.43;;;7.35;;
79570;SDS011;69034;49.444;7.758;2024-03-06T18:41:26;11.73;;;6.25;;
79570;SDS011;69034;49.444;7.758;2024-03-06T18:45:26;7.00;;;3.30;;
79570;SDS011;69034;49.444;7.758;2024-03-06T18:49:27;12.10;;;5.97;;
79570;SDS011;69034;49.444;7.758;2024-03-06T18:53:28;13.40;;;6.75;;
79570;SDS011;69034;49.444;7.758;2024-03-06T18:57:29;13.90;;;6.45;;
79570;SDS011;69034;49.444;7.758;2024-03-06T19:01:29;15.13;;;7.57;;
79570;SDS011;69034;49.444;7.758;2024-03-06T19:05:31;11.70;;;4.93;;
79570;SDS011;69034;49.444;7.758;2024-03-06T19:09:32;16.33;;;6.38;;
79570;SDS011;69034;49.444;7.758;2024-03-06T19:13:34;16.08;;;8.20;;
79570;SDS011;69034;49.444;7.758;2024-03-06T19:17:35;12.70;;;5.90;;
79570;SDS011;69034;49.444;7.758;2024-03-06T19:21:35;8.32;;;3.42;;
79570;SDS011;69034;49.444;7.758;2024-03-06T19:25:37;12.82;;;5.75;;
79570;SDS011;69034;49.444;7.758;2024-03-06T19:29:38;14.23;;;6.00;;
79570;SDS011;69034;49.444;7.758;2024-03-06T19:33:39;14.80;;;7.40;;
79570;SDS011;69034;49.444;7.758;2024-03-06T19:37:39;13.98;;;7.63;;
79570;SDS011;69034;49.444;7.758;2024-03-06T19:41:40;9.25;;;4.57;;
79570;SDS011;69034;49.444;7.758;2024-03-06T19:45:43;13.95;;;6.18;;
79570;SDS011;69034;49.444;7.758;2024-03-06T19:49:44;8.30;;;4.30;;
79570;SDS011;69034;49.444;7.758;2024-03-06T19:53:45;15.98;;;7.75;;
79570;SDS011;69034;49.444;7.758;2024-03-06T19:57:50;13.30;;;5.07;;
79570;SDS011;69034;49.444;7.758;2024-03-06T20:01:50;9.35;;;3.33;;
79570;SDS011;69034;49.444;7.758;2024-03-06T20:05:55;15.85;;;6.78;;
79570;SDS011;69034;49.444;7.758;2024-03-06T20:09:56;11.93;;;5.82;;
79570;SDS011;69034;49.444;7.758;2024-03-06T20:13:56;17.63;;;6.90;;
79570;SDS011;69034;49.444;7.758;2024-03-06T20:18:00;9.75;;;5.07;;
79570;SDS011;69034;49.444;7.758;2024-03-06T20:22:01;16.55;;;7.20;;
79570;SDS011;69034;49.444;7.758;2024-03-06T20:26:03;13.85;;;5.90;;
79570;SDS011;69034;49.444;7.758;2024-03-06T20:30:05;13.68;;;6.18;;
79570;SDS011;69034;49.444;7.758;2024-03-06T20:34:06;17.15;;;7.20;;
79570;SDS011;69034;49.444;7.758;2024-03-06T20:38:08;7.68;;;3.88;;
79570;SDS011;69034;49.444;7.758;2024-03-06T20:42:11;16.23;;;7.82;;
79570;SDS011;69034;49.444;7.758;2024-03-06T20:46:11;17.85;;;7.07;;
79570;SDS011;69034;49.444;7.758;2024-03-06T20:50:12;17.52;;;7.68;;
79570;SDS011;69034;49.444;7.758;2024-03-06T20:54:13;10.65;;;5.28;;
79570;SDS011;69034;49.444;7.758;2024-03-06T20:58:16;19.35;;;8.38;;
79570;SDS011;69034;49.444;7.758;2024-03-06T21:02:16;13.82;;;7.28;;
79570;SDS011;69034;49.444;7.758;2024-03-06T21:06:20;15.63;;;5.97;;
79570;SDS011;69034;49.444;7.758;2024-03-06T21:10:20;16.35;;;6.65;;
79570;SDS011;69034;49.444;7.758;2024-03-06T21:14:24;11.95;;;5.45;;
79570;SDS011;69034;49.444;7.758;2024-03-06T21:18:24;24.73;;;9.80;;
79570;SDS011;69034;49.444;7.758;2024-03-06T21:22:26;16.20;;;6.45;;
79570;SDS011;69034;49.444;7.758;2024-03-06T21:26:27;16.55;;;8.05;;
79570;SDS011;69034;49.444;7.758;2024-03-06T21:30:28;19.35;;;7.85;;
79570;SDS011;69034;49.444;7.758;2024-03-06T21:34:28;21.88;;;8.88;;
79570;SDS011;69034;49.444;7.758;2024-03-06T21:38:29;20.48;;;9.90;;
79570;SDS011;69034;49.444;7.758;2024-03-06T21:42:30;19.65;;;9.55;;
79570;SDS011;69034;49.444;7.758;2024-03-06T21:46:32;21.48;;;10.05;;
79570;SDS011;69034;49.444;7.758;2024-03-06T21:50:37;18.60;;;8.25;;
79570;SDS011;69034;49.444;7.758;2024-03-06T21:54:38;13.30;;;6.35;;
79570;SDS011;69034;49.444;7.758;2024-03-06T21:58:39;20.05;;;9.45;;
79570;SDS011;69034;49.444;7.758;2024-03-06T22:02:40;20.98;;;9.68;;
79570;SDS011;69034;49.444;7.758;2024-03-06T22:06:41;22.55;;;10.27;;
79570;SDS011;69034;49.444;7.758;2024-03-06T22:10:42;29.42;;;12.25;;
79570;SDS011;69034;49.444;7.758;2024-03-06T22:14:43;19.33;;;8.68;;
79570;SDS011;69034;49.444;7.758;2024-03-06T22:18:44;20.98;;;9.18;;
79570;SDS011;69034;49.444;7.758;2024-03-06T22:22:45;20.15;;;8.13;;
79570;SDS011;69034;49.444;7.758;2024-03-06T22:26:45;12.35;;;5.90;;
79570;SDS011;69034;49.444;7.758;2024-03-06T22:30:46;24.13;;;11.05;;
79570;SDS011;69034;49.444;7.758;2024-03-06T22:34:47;26.38;;;11.00;;
79570;SDS011;69034;49.444;7.758;2024-03-06T22:38:47;22.00;;;7.85;;
79570;SDS011;69034;49.444;7.758;2024-03-06T22:42:49;25.73;;;11.23;;
79570;SDS011;69034;49.444;7.758;2024-03-06T22:46:51;22.75;;;11.10;;
79570;SDS011;69034;49.444;7.758;2024-03-06T22:50:54;20.48;;;8.80;;
79570;SDS011;69034;49.444;7.758;2024-03-06T22:54:56;23.45;;;11.20;;
79570;SDS011;69034;49.444;7.758;2024-03-06T22:58:56;16.58;;;7.93;;
79570;SDS011;69034;49.444;7.758;2024-03-06T23:02:58;20.48;;;9.13;;
79570;SDS011;69034;49.444;7.758;2024-03-06T23:07:00;24.83;;;11.60;;
79570;SDS011;69034;49.444;7.758;2024-03-06T23:11:01;27.38;;;11.80;;
79570;SDS011;69034;49.444;7.758;2024-03-06T23:15:01;27.05;;;11.48;;
79570;SDS011;69034;49.444;7.758;2024-03-06T23:19:05;21.60;;;10.50;;
79570;SDS011;69034;49.444;7.758;2024-03-06T23:23:06;27.90;;;12.52;;
79570;SDS011;69034;49.444;7.758;2024-03-06T23:27:09;23.77;;;10.15;;
79570;SDS011;69034;49.444;7.758;2024-03-06T23:31:09;31.25;;;13.65;;
79570;SDS011;69034;49.444;7.758;2024-03-06T23:35:11;10.98;;;4.93;;
79570;SDS011;69034;49.444;7.758;2024-03-06T23:39:14;27.65;;;11.95;;
79570;SDS011;69034;49.444;7.758;2024-03-06T23:43:15;15.30;;;7.30;;
79570;SDS011;69034;49.444;7.758;2024-03-06T23:47:17;14.30;;;7.07;;
79570;SDS011;69034;49.444;7.758;2024-03-06T23:51:18;24.00;;;11.13;;
79570;SDS011;69034;49.444;7.758;2024-03-06T23:55:18;18.92;;;10.30;;
79570;SDS011;69034;49.444;7.758;2024-03-06T23:59:20;21.23;;;9.68;;
